createdAt,value
2018-08-18T01:00:29.466Z,62.84
2018-08-18T01:01:29.404Z,62.74
2018-08-18T01:02:29.439Z,63.24
2018-08-18T01:03:29.380Z,62.94
2018-08-18T01:04:29.370Z,63.04
2018-08-18T01:05:29.358Z,63.14
2018-08-18T01:06:29.350Z,62.97
2018-08-18T01:07:29.386Z,62.94
2018-08-18T01:08:29.336Z,62.94
2018-08-18T01:09:29.315Z,62.84
2018-08-18T01:10:29.302Z,62.87
2018-08-18T01:11:29.332Z,62.64
2018-08-18T01:12:29.393Z,63.04
2018-08-18T01:13:29.272Z,62.54
2018-08-18T01:14:29.415Z,62.74
2018-08-18T01:15:29.265Z,62.54
2018-08-18T01:16:29.238Z,62.74
2018-08-18T01:17:29.273Z,63.84
2018-08-18T01:18:29.214Z,62.67
2018-08-18T01:19:29.205Z,63.34
2018-08-18T01:20:29.201Z,63.64
2018-08-18T01:21:29.201Z,63.45
2018-08-18T01:22:29.221Z,63.04
2018-08-18T01:23:29.167Z,63.64
2018-08-18T01:24:29.153Z,63.34
2018-08-18T01:25:29.139Z,63.75
2018-08-18T01:26:29.130Z,63.54
2018-08-18T01:27:29.166Z,63.84
2018-08-18T01:28:29.106Z,62.54
2018-08-18T01:29:29.094Z,63.84
2018-08-18T01:30:29.084Z,63.14
2018-08-18T01:31:29.082Z,63.75
2018-08-18T01:32:29.118Z,63.64
2018-08-18T01:33:29.081Z,63.54
2018-08-18T01:34:29.044Z,63.64
2018-08-18T01:35:29.029Z,63.84
2018-08-18T01:36:29.019Z,63.54
2018-08-18T01:37:29.011Z,63.45
2018-08-18T01:38:29.045Z,63.64
2018-08-18T01:39:28.985Z,63.54
2018-08-18T01:40:28.974Z,63.98
2018-08-18T01:41:28.966Z,63.64
2018-08-18T01:42:28.954Z,64.25
2018-08-18T01:43:28.990Z,64.15
2018-08-18T01:44:28.931Z,64.15
2018-08-18T01:45:28.921Z,64.18
2018-08-18T01:46:28.913Z,64.28
2018-08-18T01:47:28.898Z,64.18
2018-08-18T01:48:28.937Z,64.07
2018-08-18T01:49:28.877Z,64.48
2018-08-18T01:50:28.865Z,63.67
2018-08-18T01:51:28.858Z,64.48
2018-08-18T01:52:28.851Z,64.68
2018-08-18T01:53:28.880Z,64.18
2018-08-18T01:54:28.826Z,64.68
2018-08-18T01:55:28.812Z,64.58
2018-08-18T01:56:28.801Z,64.48
2018-08-18T01:57:28.790Z,64.58
2018-08-18T01:58:28.824Z,64.48
2018-08-18T01:59:28.768Z,64.88
2018-08-18T02:00:28.756Z,64.18
2018-08-18T02:01:28.745Z,64.48
2018-08-18T02:02:28.736Z,64.18
2018-08-18T02:03:28.771Z,64.48
2018-08-18T02:04:28.718Z,64.18
2018-08-18T02:05:28.703Z,64.37
2018-08-18T02:06:28.695Z,64.48
2018-08-18T02:07:28.682Z,64.68
2018-08-18T02:08:28.720Z,64.58
2018-08-18T02:09:28.660Z,64.68
2018-08-18T02:10:28.651Z,64.81
2018-08-18T02:11:28.639Z,64.91
2018-08-18T02:12:28.626Z,64.68
2018-08-18T02:13:28.662Z,64.61
2018-08-18T02:14:28.645Z,65.11
2018-08-18T02:15:28.592Z,65.01
2018-08-18T02:16:28.581Z,65.01
2018-08-18T02:17:28.575Z,65.01
2018-08-18T02:18:28.609Z,65.31
2018-08-18T02:19:28.552Z,65.11
2018-08-18T02:20:28.544Z,64.91
2018-08-18T02:21:28.527Z,65.21
2018-08-18T02:22:28.515Z,64.88
2018-08-18T02:23:28.552Z,65.11
2018-08-18T02:24:28.493Z,65.08
2018-08-18T02:25:28.487Z,65.01
2018-08-18T02:26:28.471Z,64.40
2018-08-18T02:27:28.463Z,64.68
2018-08-18T02:28:28.495Z,64.61
2018-08-18T02:29:28.439Z,64.71
2018-08-18T02:30:28.429Z,64.71
2018-08-18T02:31:28.417Z,64.51
2018-08-18T02:32:28.405Z,64.81
2018-08-18T02:33:28.440Z,64.51
2018-08-18T02:34:28.388Z,65.01
2018-08-18T02:35:28.371Z,65.11
2018-08-18T02:36:28.366Z,65.01
2018-08-18T02:37:28.369Z,65.01
2018-08-18T02:38:28.384Z,65.01
2018-08-18T02:39:28.331Z,65.01
2018-08-18T02:40:28.322Z,65.11
2018-08-18T02:41:28.304Z,64.81
2018-08-18T02:42:28.295Z,65.31
2018-08-18T02:43:28.330Z,64.81
2018-08-18T02:44:28.273Z,64.91
2018-08-18T02:45:28.263Z,64.91
2018-08-18T02:46:28.251Z,64.61
2018-08-18T02:47:28.243Z,65.04
2018-08-18T02:48:28.282Z,65.51
2018-08-18T02:49:28.217Z,65.74
2018-08-18T02:50:28.224Z,65.61
2018-08-18T02:51:28.200Z,65.64
2018-08-18T02:52:28.194Z,65.61
2018-08-18T02:53:28.222Z,65.64
2018-08-18T02:54:28.164Z,65.34
2018-08-18T02:55:28.153Z,65.01
2018-08-18T02:56:28.139Z,65.04
2018-08-18T02:57:28.131Z,64.91
2018-08-18T02:58:28.162Z,66.24
2018-08-18T02:59:28.108Z,66.24
2018-08-18T03:00:28.095Z,66.24
2018-08-18T03:01:28.083Z,66.24
2018-08-18T03:02:28.075Z,66.31
2018-08-18T03:03:28.116Z,66.44
2018-08-18T03:04:28.054Z,65.54
2018-08-18T03:05:28.040Z,66.44
2018-08-18T03:06:28.030Z,65.94
2018-08-18T03:07:28.017Z,65.94
2018-08-18T03:08:28.010Z,66.05
2018-08-18T03:09:28.050Z,65.94
2018-08-18T03:10:27.984Z,65.74
2018-08-18T03:11:27.973Z,66.14
2018-08-18T03:12:27.962Z,66.24
2018-08-18T03:13:27.950Z,66.14
2018-08-18T03:14:27.984Z,66.64
2018-08-18T03:15:27.929Z,66.55
2018-08-18T03:16:27.919Z,66.64
2018-08-18T03:17:27.910Z,66.64
2018-08-18T03:18:27.896Z,66.64
2018-08-18T03:19:27.931Z,66.24
2018-08-18T03:20:27.877Z,66.35
2018-08-18T03:21:27.864Z,66.55
2018-08-18T03:22:27.851Z,66.35
2018-08-18T03:23:27.841Z,66.35
2018-08-18T03:24:27.874Z,66.35
2018-08-18T03:25:27.821Z,66.14
2018-08-18T03:26:27.807Z,66.14
2018-08-18T03:27:27.796Z,66.44
2018-08-18T03:28:27.784Z,66.44
2018-08-18T03:29:27.818Z,66.44
2018-08-18T03:30:27.763Z,66.05
2018-08-18T03:31:27.756Z,66.05
2018-08-18T03:32:27.743Z,66.14
2018-08-18T03:33:27.730Z,65.94
2018-08-18T03:34:27.778Z,66.05
2018-08-18T03:35:27.709Z,66.14
2018-08-18T03:36:27.695Z,66.58
2018-08-18T03:37:27.698Z,66.28
2018-08-18T03:38:27.674Z,65.94
2018-08-18T03:39:27.710Z,66.05
2018-08-18T03:40:27.655Z,65.94
2018-08-18T03:41:27.641Z,65.94
2018-08-18T03:42:27.629Z,65.94
2018-08-18T03:43:27.618Z,66.08
2018-08-18T03:44:27.656Z,65.97
2018-08-18T03:45:27.596Z,65.97
2018-08-18T03:46:27.585Z,65.97
2018-08-18T03:47:27.573Z,65.97
2018-08-18T03:48:27.566Z,65.97
2018-08-18T03:49:27.598Z,66.08
2018-08-18T03:50:27.544Z,66.08
2018-08-18T03:51:27.529Z,65.97
2018-08-18T03:52:27.533Z,66.08
2018-08-18T03:53:27.508Z,66.38
2018-08-18T03:54:27.553Z,66.08
2018-08-18T03:55:27.497Z,65.91
2018-08-18T03:56:27.475Z,66.00
2018-08-18T03:57:27.467Z,66.08
2018-08-18T03:58:27.452Z,66.00
2018-08-18T03:59:27.444Z,66.11
2018-08-18T04:00:27.474Z,66.08
2018-08-18T04:01:27.472Z,66.38
2018-08-18T04:02:27.407Z,65.97
2018-08-18T04:03:27.395Z,65.97
2018-08-18T04:04:27.385Z,66.11
2018-08-18T04:05:27.420Z,65.88
2018-08-18T04:06:27.363Z,65.97
2018-08-18T04:07:27.352Z,66.00
2018-08-18T04:08:27.340Z,66.41
2018-08-18T04:09:27.329Z,66.51
2018-08-18T04:10:27.365Z,66.41
2018-08-18T04:11:27.310Z,66.41
2018-08-18T04:12:27.349Z,66.41
2018-08-18T04:13:27.285Z,66.38
2018-08-18T04:14:27.273Z,65.97
2018-08-18T04:15:27.307Z,66.11
2018-08-18T04:16:27.253Z,66.17
2018-08-18T04:17:27.240Z,66.08
2018-08-18T04:18:27.228Z,66.38
2018-08-18T04:19:27.222Z,66.17
2018-08-18T04:20:27.257Z,66.58
2018-08-18T04:21:27.197Z,66.51
2018-08-18T04:22:27.190Z,66.17
2018-08-18T04:23:27.178Z,66.61
2018-08-18T04:24:27.164Z,66.78
2018-08-18T04:25:27.196Z,66.08
2018-08-18T04:26:27.141Z,66.71
2018-08-18T04:27:27.130Z,66.47
2018-08-18T04:28:27.121Z,66.20
2018-08-18T04:29:27.110Z,66.71
2018-08-18T04:30:27.148Z,66.67
2018-08-18T04:31:27.084Z,66.58
2018-08-18T04:32:27.074Z,66.71
2018-08-18T04:33:27.065Z,66.67
2018-08-18T04:34:27.058Z,66.98
2018-08-18T04:35:27.197Z,66.38
2018-08-18T04:36:27.031Z,66.41
2018-08-18T04:37:27.020Z,66.58
2018-08-18T04:38:27.008Z,66.58
2018-08-18T04:39:26.997Z,66.58
2018-08-18T04:40:27.035Z,66.38
2018-08-18T04:41:26.973Z,66.58
2018-08-18T04:42:26.968Z,66.67
2018-08-18T04:43:26.952Z,66.38
2018-08-18T04:44:26.941Z,66.28
2018-08-18T04:45:26.978Z,66.28
2018-08-18T04:46:26.919Z,66.78
2018-08-18T04:47:26.908Z,66.47
2018-08-18T04:48:26.896Z,66.67
2018-08-18T04:49:26.886Z,66.67
2018-08-18T04:50:26.960Z,66.67
2018-08-18T04:51:26.865Z,66.47
2018-08-18T04:52:26.855Z,66.98
2018-08-18T04:53:26.840Z,66.58
2018-08-18T04:54:26.831Z,66.67
2018-08-18T04:55:26.818Z,66.38
2018-08-18T04:56:26.858Z,66.38
2018-08-18T04:57:26.798Z,66.38
2018-08-18T04:58:26.788Z,66.67
2018-08-18T04:59:26.855Z,66.58
2018-08-18T05:00:26.765Z,66.58
2018-08-18T05:01:26.811Z,66.08
2018-08-18T05:02:26.740Z,66.67
2018-08-18T05:03:26.799Z,66.58
2018-08-18T05:04:26.724Z,66.28
2018-08-18T05:05:26.711Z,66.38
2018-08-18T05:06:26.744Z,66.28
2018-08-18T05:07:26.686Z,66.47
2018-08-18T05:08:26.675Z,66.38
2018-08-18T05:09:26.667Z,66.28
2018-08-18T05:10:26.653Z,66.38
2018-08-18T05:11:26.697Z,66.38
2018-08-18T05:12:26.631Z,66.38
2018-08-18T05:13:26.621Z,66.08
2018-08-18T05:14:26.608Z,66.28
2018-08-18T05:15:26.600Z,66.08
2018-08-18T05:16:26.633Z,66.47
2018-08-18T05:17:26.574Z,66.08
2018-08-18T05:18:26.564Z,65.97
2018-08-18T05:19:26.552Z,66.08
2018-08-18T05:20:26.545Z,65.97
2018-08-18T05:21:26.581Z,66.38
2018-08-18T05:22:26.520Z,66.14
2018-08-18T05:23:26.510Z,66.24
2018-08-18T05:24:26.496Z,66.14
2018-08-18T05:25:26.490Z,66.38
2018-08-18T05:26:26.520Z,66.35
2018-08-18T05:27:26.467Z,66.05
2018-08-18T05:28:26.453Z,66.17
2018-08-18T05:29:26.442Z,65.97
2018-08-18T05:30:26.433Z,66.35
2018-08-18T05:31:26.464Z,64.84
2018-08-18T05:32:26.412Z,65.14
2018-08-18T05:33:26.398Z,64.94
2018-08-18T05:34:26.386Z,65.77
2018-08-18T05:35:26.377Z,65.74
2018-08-18T05:36:26.414Z,65.84
2018-08-18T05:37:26.359Z,64.87
2018-08-18T05:38:26.343Z,65.34
2018-08-18T05:39:26.331Z,65.64
2018-08-18T05:40:26.322Z,65.24
2018-08-18T05:41:26.357Z,65.34
2018-08-18T05:42:26.300Z,64.74
2018-08-18T05:43:26.288Z,64.94
2018-08-18T05:44:26.279Z,64.84
2018-08-18T05:45:26.263Z,65.04
2018-08-18T05:46:26.299Z,65.04
2018-08-18T05:47:26.253Z,65.14
2018-08-18T05:48:26.232Z,65.04
2018-08-18T05:49:26.222Z,64.94
2018-08-18T05:50:26.208Z,64.84
2018-08-18T05:51:26.245Z,64.51
2018-08-18T05:52:26.200Z,64.91
2018-08-18T05:53:26.179Z,64.40
2018-08-18T05:54:26.173Z,64.61
2018-08-18T05:55:26.155Z,64.21
2018-08-18T05:56:26.194Z,64.21
2018-08-18T05:57:26.132Z,64.21
2018-08-18T05:58:26.123Z,64.74
2018-08-18T05:59:26.108Z,64.64
2018-08-18T06:00:26.102Z,64.64
2018-08-18T06:01:26.139Z,64.21
2018-08-18T06:02:26.082Z,64.91
2018-08-18T06:03:26.064Z,64.31
2018-08-18T06:04:26.063Z,64.07
2018-08-18T06:05:26.045Z,63.87
2018-08-18T06:06:26.079Z,63.07
2018-08-18T06:07:26.024Z,62.74
2018-08-18T06:08:26.009Z,62.44
2018-08-18T06:09:26.002Z,62.11
2018-08-18T06:10:25.992Z,60.78
2018-08-18T06:11:26.021Z,60.58
2018-08-18T06:12:25.964Z,60.28
2018-08-18T06:13:25.953Z,60.75
2018-08-18T06:14:25.945Z,60.88
2018-08-18T06:15:25.930Z,60.78
2018-08-18T06:16:25.921Z,61.51
2018-08-18T06:17:25.954Z,61.51
2018-08-18T06:18:25.899Z,61.81
2018-08-18T06:19:25.894Z,61.38
2018-08-18T06:20:25.878Z,60.78
2018-08-18T06:21:25.864Z,60.38
2018-08-18T06:22:25.899Z,60.68
2018-08-18T06:23:25.841Z,60.98
2018-08-18T06:24:25.831Z,60.68
2018-08-18T06:25:25.821Z,60.78
2018-08-18T06:26:25.810Z,60.65
2018-08-18T06:27:25.844Z,60.55
2018-08-18T06:28:25.791Z,59.95
2018-08-18T06:29:25.777Z,60.15
2018-08-18T06:30:25.767Z,59.02
2018-08-18T06:31:25.754Z,59.22
2018-08-18T06:32:25.788Z,59.19
2018-08-18T06:33:25.731Z,59.49
2018-08-18T06:34:25.778Z,59.62
2018-08-18T06:35:25.712Z,59.85
2018-08-18T06:36:25.698Z,59.95
2018-08-18T06:37:25.737Z,60.25
2018-08-18T06:38:25.677Z,60.45
2018-08-18T06:39:25.666Z,60.65
2018-08-18T06:40:25.659Z,60.02
2018-08-18T06:41:25.695Z,59.62
2018-08-18T06:42:25.680Z,60.05
2018-08-18T06:43:25.620Z,60.78
2018-08-18T06:44:25.612Z,61.18
2018-08-18T06:45:25.604Z,60.68
2018-08-18T06:46:25.588Z,60.68
2018-08-18T06:47:25.626Z,60.88
2018-08-18T06:48:25.567Z,60.68
2018-08-18T06:49:25.554Z,60.58
2018-08-18T06:50:25.542Z,59.88
2018-08-18T06:51:25.531Z,59.65
2018-08-18T06:52:25.572Z,59.55
2018-08-18T06:53:25.511Z,58.39
2018-08-18T06:54:25.621Z,58.06
2018-08-18T06:55:25.489Z,57.67
2018-08-18T06:56:25.473Z,57.07
2018-08-18T06:57:25.509Z,57.76
2018-08-18T06:58:25.462Z,57.69
2018-08-18T06:59:25.443Z,57.89
2018-08-18T07:00:25.429Z,57.87
2018-08-18T07:01:25.419Z,57.59
2018-08-18T07:02:25.470Z,57.17
2018-08-18T07:03:25.397Z,56.96
2018-08-18T07:04:25.386Z,56.74
2018-08-18T07:05:25.372Z,56.74
2018-08-18T07:06:25.365Z,56.64
2018-08-18T07:07:25.361Z,56.67
2018-08-18T07:08:25.387Z,56.46
2018-08-18T07:09:25.325Z,57.19
2018-08-18T07:10:25.319Z,58.82
2018-08-18T07:11:25.306Z,58.32
2018-08-18T07:12:25.294Z,58.82
2018-08-18T07:13:25.327Z,58.62
2018-08-18T07:14:25.269Z,58.75
2018-08-18T07:15:25.260Z,58.32
2018-08-18T07:16:25.248Z,59.02
2018-08-18T07:17:25.237Z,58.82
2018-08-18T07:18:25.271Z,58.42
2018-08-18T07:19:25.222Z,58.52
2018-08-18T07:20:25.205Z,58.92
2018-08-18T07:21:25.191Z,58.82
2018-08-18T07:22:25.181Z,58.52
2018-08-18T07:23:25.219Z,57.79
2018-08-18T07:24:25.158Z,58.49
2018-08-18T07:25:25.148Z,58.69
2018-08-18T07:26:25.141Z,57.92
2018-08-18T07:27:25.126Z,58.22
2018-08-18T07:28:25.284Z,58.22
2018-08-18T07:29:25.104Z,58.00
2018-08-18T07:30:25.092Z,57.79
2018-08-18T07:31:25.080Z,56.29
2018-08-18T07:32:25.071Z,56.84
2018-08-18T07:33:25.105Z,56.24
2018-08-18T07:34:25.048Z,55.84
2018-08-18T07:35:25.034Z,55.44
2018-08-18T07:36:25.024Z,55.64
2018-08-18T07:37:25.067Z,55.94
2018-08-18T07:38:25.050Z,56.16
2018-08-18T07:39:25.003Z,56.96
2018-08-18T07:40:24.988Z,56.67
2018-08-18T07:41:24.967Z,56.16
2018-08-18T07:42:24.956Z,56.07
2018-08-18T07:43:24.994Z,56.46
2018-08-18T07:44:24.937Z,56.16
2018-08-18T07:45:24.923Z,56.27
2018-08-18T07:46:25.012Z,56.07
2018-08-18T07:47:24.899Z,56.37
2018-08-18T07:48:24.939Z,56.27
2018-08-18T07:49:24.878Z,55.66
2018-08-18T07:50:24.870Z,56.07
2018-08-18T07:51:24.860Z,55.97
2018-08-18T07:52:24.845Z,56.70
2018-08-18T07:53:24.937Z,56.67
2018-08-18T07:54:24.824Z,56.20
2018-08-18T07:55:24.812Z,56.57
2018-08-18T07:56:24.802Z,56.37
2018-08-18T07:57:24.792Z,56.07
2018-08-18T07:58:24.780Z,56.27
2018-08-18T07:59:24.815Z,55.87
2018-08-18T08:00:24.758Z,55.87
2018-08-18T08:01:24.789Z,55.87
2018-08-18T08:02:24.734Z,55.66
2018-08-18T08:03:24.725Z,56.16
2018-08-18T08:04:24.850Z,55.54
2018-08-18T08:05:24.704Z,55.24
2018-08-18T08:06:24.691Z,55.64
2018-08-18T08:07:24.686Z,55.24
2018-08-18T08:08:24.668Z,55.64
2018-08-18T08:09:24.704Z,55.66
2018-08-18T08:10:24.653Z,55.34
2018-08-18T08:11:24.635Z,55.34
2018-08-18T08:12:24.659Z,55.04
2018-08-18T08:13:24.614Z,55.04
2018-08-18T08:14:24.650Z,55.51
2018-08-18T08:15:24.592Z,55.51
2018-08-18T08:16:24.581Z,55.64
2018-08-18T08:17:24.569Z,54.41
2018-08-18T08:18:24.561Z,54.22
2018-08-18T08:19:24.619Z,54.41
2018-08-18T08:20:24.536Z,53.92
2018-08-18T08:21:24.529Z,54.29
2018-08-18T08:22:24.514Z,54.19
2018-08-18T08:23:24.503Z,54.29
2018-08-18T08:24:24.538Z,53.96
2018-08-18T08:25:24.481Z,53.66
2018-08-18T08:26:24.481Z,53.66
2018-08-18T08:27:24.462Z,53.47
2018-08-18T08:28:24.450Z,53.47
2018-08-18T08:29:24.501Z,53.04
2018-08-18T08:30:24.426Z,52.49
2018-08-18T08:31:24.415Z,52.39
2018-08-18T08:32:24.406Z,52.19
2018-08-18T08:33:24.398Z,52.62
2018-08-18T08:34:24.437Z,52.62
2018-08-18T08:35:24.371Z,52.62
2018-08-18T08:36:24.362Z,52.74
2018-08-18T08:37:24.353Z,52.62
2018-08-18T08:38:24.344Z,52.81
2018-08-18T08:39:24.371Z,52.51
2018-08-18T08:40:24.316Z,52.19
2018-08-18T08:41:24.306Z,52.00
2018-08-18T08:42:24.297Z,52.39
2018-08-18T08:43:24.389Z,52.00
2018-08-18T08:44:24.318Z,52.37
2018-08-18T08:45:24.271Z,52.39
2018-08-18T08:46:24.260Z,52.42
2018-08-18T08:47:24.244Z,52.62
2018-08-18T08:48:24.229Z,52.51
2018-08-18T08:49:24.271Z,52.72
2018-08-18T08:50:24.209Z,52.51
2018-08-18T08:51:24.194Z,52.79
2018-08-18T08:52:24.183Z,52.49
2018-08-18T08:53:24.173Z,52.79
2018-08-18T08:54:24.213Z,53.02
2018-08-18T08:55:24.158Z,53.41
2018-08-18T08:56:24.143Z,52.92
2018-08-18T08:57:24.128Z,52.81
2018-08-18T08:58:24.119Z,52.72
2018-08-18T08:59:24.155Z,52.81
2018-08-18T09:00:24.097Z,52.12
2018-08-18T09:01:24.089Z,52.92
2018-08-18T09:02:24.086Z,52.72
2018-08-18T09:03:24.065Z,52.29
2018-08-18T09:04:24.100Z,52.89
2018-08-18T09:05:24.049Z,52.49
2018-08-18T09:06:24.043Z,52.29
2018-08-18T09:07:24.019Z,51.89
2018-08-18T09:08:24.023Z,52.00
2018-08-18T09:09:24.081Z,51.97
2018-08-18T09:10:24.045Z,51.77
2018-08-18T09:11:23.975Z,51.37
2018-08-18T09:12:23.963Z,51.67
2018-08-18T09:13:23.957Z,52.37
2018-08-18T09:14:24.007Z,51.57
2018-08-18T09:15:23.932Z,51.95
2018-08-18T09:16:23.927Z,50.85
2018-08-18T09:17:23.910Z,50.95
2018-08-18T09:18:23.898Z,51.15
2018-08-18T09:19:23.931Z,51.65
2018-08-18T09:20:23.876Z,51.84
2018-08-18T09:21:23.869Z,52.14
2018-08-18T09:22:23.866Z,51.25
2018-08-18T09:23:23.852Z,51.54
2018-08-18T09:24:23.897Z,51.15
2018-08-18T09:25:23.828Z,51.35
2018-08-18T09:26:23.813Z,51.54
2018-08-18T09:27:23.805Z,51.84
2018-08-18T09:28:23.788Z,51.84
2018-08-18T09:29:23.823Z,52.44
2018-08-18T09:30:23.774Z,51.95
2018-08-18T09:31:23.811Z,51.25
2018-08-18T09:32:23.856Z,51.35
2018-08-18T09:33:23.758Z,51.45
2018-08-18T09:34:23.794Z,51.32
2018-08-18T09:35:23.713Z,50.23
2018-08-18T09:36:23.728Z,50.01
2018-08-18T09:37:23.690Z,49.58
2018-08-18T09:38:23.687Z,49.88
2018-08-18T09:39:23.669Z,49.66
2018-08-18T09:40:23.708Z,49.46
2018-08-18T09:41:23.646Z,47.45
2018-08-18T09:42:23.634Z,47.41
2018-08-18T09:43:23.623Z,46.79
2018-08-18T09:44:23.613Z,47.61
2018-08-18T09:45:23.661Z,47.01
2018-08-18T09:46:23.709Z,47.50
2018-08-18T09:47:23.587Z,48.02
2018-08-18T09:48:23.574Z,48.65
2018-08-18T09:49:23.564Z,48.96
2018-08-18T09:50:23.594Z,48.66
2018-08-18T09:51:23.538Z,49.14
2018-08-18T09:52:23.550Z,48.35
2018-08-18T09:53:23.518Z,49.16
2018-08-18T09:54:23.511Z,48.86
2018-08-18T09:55:23.539Z,48.66
2018-08-18T09:56:23.486Z,49.16
2018-08-18T09:57:23.477Z,48.96
2018-08-18T09:58:23.461Z,48.35
2018-08-18T09:59:23.520Z,49.16
2018-08-18T10:00:23.494Z,48.77
2018-08-18T10:01:23.429Z,49.16
2018-08-18T10:02:23.417Z,48.47
2018-08-18T10:03:23.413Z,48.66
2018-08-18T10:04:23.395Z,49.16
2018-08-18T10:05:23.433Z,48.86
2018-08-18T10:06:23.434Z,48.17
2018-08-18T10:07:23.365Z,48.77
2018-08-18T10:08:23.353Z,48.44
2018-08-18T10:09:23.342Z,48.25
2018-08-18T10:10:23.379Z,46.83
2018-08-18T10:11:23.321Z,47.23
2018-08-18T10:12:23.309Z,47.63
2018-08-18T10:13:23.299Z,47.63
2018-08-18T10:14:23.299Z,47.73
2018-08-18T10:15:23.433Z,47.53
2018-08-18T10:16:23.264Z,47.23
2018-08-18T10:17:23.264Z,47.16
2018-08-18T10:18:23.249Z,46.93
2018-08-18T10:19:23.229Z,47.43
2018-08-18T10:20:23.267Z,47.23
2018-08-18T10:21:23.209Z,47.63
2018-08-18T10:22:23.200Z,47.55
2018-08-18T10:23:23.196Z,47.45
2018-08-18T10:24:23.178Z,47.65
2018-08-18T10:25:23.226Z,47.75
2018-08-18T10:26:23.155Z,47.45
2018-08-18T10:27:23.152Z,47.55
2018-08-18T10:28:23.134Z,47.55
2018-08-18T10:29:23.122Z,47.55
2018-08-18T10:30:23.108Z,47.45
2018-08-18T10:31:23.149Z,47.55
2018-08-18T10:32:23.088Z,47.28
2018-08-18T10:33:23.090Z,47.85
2018-08-18T10:34:23.065Z,47.45
2018-08-18T10:35:23.059Z,47.45
2018-08-18T10:36:23.090Z,47.05
2018-08-18T10:37:23.032Z,47.35
2018-08-18T10:38:23.021Z,46.76
2018-08-18T10:39:23.014Z,47.33
2018-08-18T10:40:22.998Z,47.43
2018-08-18T10:41:23.035Z,47.01
2018-08-18T10:42:22.975Z,46.42
2018-08-18T10:43:22.965Z,46.22
2018-08-18T10:44:22.958Z,46.42
2018-08-18T10:45:22.943Z,46.42
2018-08-18T10:46:23.003Z,46.02
2018-08-18T10:47:22.919Z,46.42
2018-08-18T10:48:22.909Z,45.03
2018-08-18T10:49:22.898Z,45.90
2018-08-18T10:50:22.895Z,45.92
2018-08-18T10:51:22.875Z,46.09
2018-08-18T10:52:23.155Z,46.69
2018-08-18T10:53:22.856Z,46.19
2018-08-18T10:54:22.847Z,45.50
2018-08-18T10:55:22.839Z,45.30
2018-08-18T10:56:22.821Z,45.20
2018-08-18T10:57:22.860Z,46.44
2018-08-18T10:58:22.824Z,46.22
2018-08-18T10:59:22.798Z,46.22
2018-08-18T11:00:22.778Z,46.12
2018-08-18T11:01:22.767Z,46.81
2018-08-18T11:02:22.799Z,46.00
2018-08-18T11:03:22.745Z,46.00
2018-08-18T11:04:22.737Z,45.90
2018-08-18T11:05:22.725Z,45.20
2018-08-18T11:06:22.720Z,45.50
2018-08-18T11:07:22.745Z,45.10
2018-08-18T11:08:22.691Z,45.10
2018-08-18T11:09:22.711Z,45.82
2018-08-18T11:10:22.667Z,45.92
2018-08-18T11:11:22.656Z,45.94
2018-08-18T11:12:22.693Z,46.44
2018-08-18T11:13:22.637Z,45.82
2018-08-18T11:14:22.623Z,45.92
2018-08-18T11:15:22.613Z,46.22
2018-08-18T11:16:22.606Z,46.22
2018-08-18T11:17:22.642Z,46.02
2018-08-18T11:18:22.581Z,45.40
2018-08-18T11:19:22.570Z,45.10
2018-08-18T11:20:22.559Z,44.90
2018-08-18T11:21:22.549Z,45.48
2018-08-18T11:22:22.585Z,45.28
2018-08-18T11:23:22.526Z,44.71
2018-08-18T11:24:22.516Z,44.89
2018-08-18T11:25:22.506Z,45.08
2018-08-18T11:26:22.493Z,44.29
2018-08-18T11:27:22.528Z,44.76
2018-08-18T11:28:22.558Z,43.87
2018-08-18T11:29:22.470Z,44.39
2018-08-18T11:30:22.450Z,44.89
2018-08-18T11:31:22.441Z,44.51
2018-08-18T11:32:22.476Z,44.39
2018-08-18T11:33:22.418Z,44.39
2018-08-18T11:34:22.411Z,44.09
2018-08-18T11:35:22.398Z,44.09
2018-08-18T11:36:22.386Z,44.37
2018-08-18T11:37:22.379Z,43.57
2018-08-18T11:38:22.408Z,43.48
2018-08-18T11:39:22.358Z,43.57
2018-08-18T11:40:22.343Z,44.07
2018-08-18T11:41:22.333Z,43.57
2018-08-18T11:42:22.322Z,43.35
2018-08-18T11:43:22.360Z,43.26
2018-08-18T11:44:22.301Z,42.96
2018-08-18T11:45:22.297Z,43.06
2018-08-18T11:46:22.282Z,43.06
2018-08-18T11:47:22.265Z,42.54
2018-08-18T11:48:22.310Z,42.57
2018-08-18T11:49:22.245Z,42.86
2018-08-18T11:50:22.236Z,42.66
2018-08-18T11:51:22.227Z,42.66
2018-08-18T11:52:22.213Z,43.65
2018-08-18T11:53:22.253Z,42.66
2018-08-18T11:54:22.194Z,42.86
2018-08-18T11:55:22.183Z,43.16
2018-08-18T11:56:22.168Z,42.86
2018-08-18T11:57:22.162Z,43.26
2018-08-18T11:58:22.197Z,43.13
2018-08-18T11:59:22.142Z,42.40
2018-08-18T12:00:22.125Z,40.53
2018-08-18T12:01:22.116Z,40.25
2018-08-18T12:02:22.105Z,38.35
2018-08-18T12:03:22.138Z,38.43
2018-08-18T12:04:22.084Z,37.53
2018-08-18T12:05:22.071Z,38.49
2018-08-18T12:06:22.061Z,37.57
2018-08-18T12:07:22.052Z,36.47
2018-08-18T12:08:22.087Z,36.46
2018-08-18T12:09:22.031Z,35.64
2018-08-18T12:10:22.019Z,35.93
2018-08-18T12:11:22.009Z,35.82
2018-08-18T12:12:22.002Z,35.42
2018-08-18T12:13:21.992Z,34.92
2018-08-18T12:14:22.019Z,34.41
2018-08-18T12:15:21.967Z,34.20
2018-08-18T12:16:22.027Z,34.41
2018-08-18T12:17:21.945Z,34.23
2018-08-18T12:18:21.940Z,34.87
2018-08-18T12:19:21.975Z,35.67
2018-08-18T12:20:21.918Z,35.55
2018-08-18T12:21:21.968Z,35.83
2018-08-18T12:22:21.893Z,34.15
2018-08-18T12:23:21.884Z,35.11
2018-08-18T12:24:21.924Z,34.61
2018-08-18T12:25:21.863Z,34.10
2018-08-18T12:26:21.851Z,32.99
2018-08-18T12:27:21.851Z,32.87
2018-08-18T12:28:21.831Z,31.99
2018-08-18T12:29:21.881Z,32.76
2018-08-18T12:30:21.812Z,31.77
2018-08-18T12:31:21.799Z,31.25
2018-08-18T12:32:21.788Z,30.26
2018-08-18T12:33:21.781Z,30.26
2018-08-18T12:34:21.814Z,30.16
2018-08-18T12:35:21.760Z,30.34
2018-08-18T12:36:21.796Z,29.44
2018-08-18T12:37:21.771Z,30.42
2018-08-18T12:38:21.732Z,29.53
2018-08-18T12:39:21.769Z,28.36
2018-08-18T12:40:21.706Z,29.03
2018-08-18T12:41:21.698Z,29.53
2018-08-18T12:42:21.694Z,29.13
2018-08-18T12:43:21.701Z,28.83
2018-08-18T12:44:21.716Z,28.14
2018-08-18T12:45:21.661Z,28.16
2018-08-18T12:46:21.646Z,28.86
2018-08-18T12:47:21.644Z,29.77
2018-08-18T12:48:21.627Z,30.30
2018-08-18T12:49:21.662Z,32.30
2018-08-18T12:50:21.607Z,32.54
2018-08-18T12:51:21.597Z,34.52
2018-08-18T12:52:21.596Z,34.16
2018-08-18T12:53:21.582Z,35.28
2018-08-18T12:54:21.610Z,35.82
2018-08-18T12:55:21.554Z,36.61
2018-08-18T12:56:21.549Z,36.71
2018-08-18T12:57:21.534Z,35.74
2018-08-18T12:58:21.676Z,35.64
2018-08-18T12:59:21.559Z,35.54
2018-08-18T13:00:21.502Z,35.56
2018-08-18T13:01:21.490Z,35.68
2018-08-18T13:02:21.482Z,35.77
2018-08-18T13:03:21.471Z,36.17
2018-08-18T13:04:21.561Z,35.68
2018-08-18T13:05:21.448Z,35.58
2018-08-18T13:06:21.438Z,36.46
2018-08-18T13:07:21.428Z,36.48
2018-08-18T13:08:21.416Z,36.98
2018-08-18T13:09:21.455Z,36.68
2018-08-18T13:10:21.401Z,37.07
2018-08-18T13:11:21.440Z,36.48
2018-08-18T13:12:21.376Z,36.38
2018-08-18T13:13:21.363Z,36.98
2018-08-18T13:14:21.427Z,37.29
2018-08-18T13:15:21.345Z,36.90
2018-08-18T13:16:21.361Z,37.51
2018-08-18T13:17:21.320Z,36.99
2018-08-18T13:18:21.309Z,36.91
2018-08-18T13:19:21.346Z,37.21
2018-08-18T13:20:21.329Z,36.71
2018-08-18T13:21:21.299Z,37.41
2018-08-18T13:22:21.289Z,36.91
2018-08-18T13:23:21.259Z,37.01
2018-08-18T13:24:21.319Z,37.60
2018-08-18T13:25:21.235Z,37.80
2018-08-18T13:26:21.260Z,37.11
2018-08-18T13:27:21.217Z,36.40
2018-08-18T13:28:21.212Z,36.70
2018-08-18T13:29:21.274Z,37.09
2018-08-18T13:30:21.185Z,37.30
2018-08-18T13:31:21.176Z,36.70
2018-08-18T13:32:21.189Z,36.42
2018-08-18T13:33:21.212Z,36.71
2018-08-18T13:34:21.226Z,37.21
2018-08-18T13:35:21.133Z,37.11
2018-08-18T13:36:21.130Z,37.11
2018-08-18T13:37:21.106Z,36.61
2018-08-18T13:38:21.117Z,36.63
2018-08-18T13:39:21.132Z,37.32
2018-08-18T13:40:22.207Z,36.54
2018-08-18T13:41:21.180Z,37.70
2018-08-18T13:42:21.083Z,37.01
2018-08-18T13:43:21.281Z,37.51
2018-08-18T13:44:21.029Z,36.61
2018-08-18T13:45:21.067Z,36.52
2018-08-18T13:46:21.036Z,37.01
2018-08-18T13:47:21.052Z,35.73
2018-08-18T13:48:20.989Z,36.32
2018-08-18T13:49:20.983Z,35.63
2018-08-18T13:50:21.021Z,35.63
2018-08-18T13:51:20.954Z,35.61
2018-08-18T13:52:20.943Z,35.93